Enfield Center, New Hampshire
Current Conditions -  °F | °C
As of 12:01 AM on Sunday 23 Nov 2014 (Local Time) from KLEB Reporting Station
Overcast Overcast  
Wind Chill: 34°   Ceiling: 9500
Heat Index: 41°   Visibility: 10mi
Dew Point: 26°   Wind: 13mph
Humidity: 55%   Direction: 200°SSW
Pressure: 29.97"   Gusts: NA
Location:  43.59°N, 72.11°W
Report Text: KLEB 230501Z AUTO 20011KT 10SM SCT028 OVC095 05/M03 A2997 RMK AO2 T00501033
Loading
Personal Weather Stations






























Interactive Weather Map New forecast layout! Learn more

10-Day Weather Forecast

Advertisements
Track Severe Weather on mobile